sensor_id;sensor_type;location;lat;lon;timestamp;P1;durP1;ratioP1;P2;durP2;ratioP2
56577;SDS011;42461;53.192;5.646;2022-07-06T00:01:41;3.15;;;1.33;;
56577;SDS011;42461;53.192;5.646;2022-07-06T00:04:07;3.08;;;1.40;;
56577;SDS011;42461;53.192;5.646;2022-07-06T00:06:33;2.47;;;1.17;;
56577;SDS011;42461;53.192;5.646;2022-07-06T00:08:59;4.68;;;1.35;;
56577;SDS011;42461;53.192;5.646;2022-07-06T00:11:25;3.92;;;1.23;;
56577;SDS011;42461;53.192;5.646;2022-07-06T00:13:52;2.00;;;1.10;;
56577;SDS011;42461;53.192;5.646;2022-07-06T00:16:18;3.65;;;1.48;;
56577;SDS011;42461;53.192;5.646;2022-07-06T00:18:44;2.85;;;1.48;;
56577;SDS011;42461;53.192;5.646;2022-07-06T00:21:11;3.10;;;1.20;;
56577;SDS011;42461;53.192;5.646;2022-07-06T00:23:37;2.47;;;1.30;;
56577;SDS011;42461;53.192;5.646;2022-07-06T00:26:03;2.47;;;1.30;;
56577;SDS011;42461;53.192;5.646;2022-07-06T00:28:29;4.38;;;1.40;;
56577;SDS011;42461;53.192;5.646;2022-07-06T00:30:55;2.45;;;1.27;;
56577;SDS011;42461;53.192;5.646;2022-07-06T00:33:21;3.20;;;1.38;;
56577;SDS011;42461;53.192;5.646;2022-07-06T00:35:47;2.40;;;1.20;;
56577;SDS011;42461;53.192;5.646;2022-07-06T00:38:13;3.67;;;1.33;;
56577;SDS011;42461;53.192;5.646;2022-07-06T00:40:39;4.22;;;1.27;;
56577;SDS011;42461;53.192;5.646;2022-07-06T00:43:05;3.67;;;1.30;;
56577;SDS011;42461;53.192;5.646;2022-07-06T00:45:31;3.00;;;1.38;;
56577;SDS011;42461;53.192;5.646;2022-07-06T00:47:57;3.15;;;1.30;;
56577;SDS011;42461;53.192;5.646;2022-07-06T00:50:23;4.75;;;1.52;;
56577;SDS011;42461;53.192;5.646;2022-07-06T00:52:51;5.35;;;1.30;;
56577;SDS011;42461;53.192;5.646;2022-07-06T00:55:18;2.78;;;1.50;;
56577;SDS011;42461;53.192;5.646;2022-07-06T00:57:44;4.50;;;1.63;;
56577;SDS011;42461;53.192;5.646;2022-07-06T01:00:11;3.10;;;1.42;;
56577;SDS011;42461;53.192;5.646;2022-07-06T01:02:37;4.30;;;1.35;;
56577;SDS011;42461;53.192;5.646;2022-07-06T01:05:04;4.30;;;1.42;;
56577;SDS011;42461;53.192;5.646;2022-07-06T01:07:31;3.38;;;1.40;;
56577;SDS011;42461;53.192;5.646;2022-07-06T01:09:57;2.95;;;1.40;;
56577;SDS011;42461;53.192;5.646;2022-07-06T01:12:23;3.78;;;1.40;;
56577;SDS011;42461;53.192;5.646;2022-07-06T01:14:49;3.47;;;1.48;;
56577;SDS011;42461;53.192;5.646;2022-07-06T01:17:15;3.53;;;1.50;;
56577;SDS011;42461;53.192;5.646;2022-07-06T01:19:41;3.83;;;1.52;;
56577;SDS011;42461;53.192;5.646;2022-07-06T01:22:08;2.83;;;1.50;;
56577;SDS011;42461;53.192;5.646;2022-07-06T01:24:34;4.65;;;1.27;;
56577;SDS011;42461;53.192;5.646;2022-07-06T01:27:01;5.80;;;1.25;;
56577;SDS011;42461;53.192;5.646;2022-07-06T01:29:27;4.28;;;1.30;;
56577;SDS011;42461;53.192;5.646;2022-07-06T01:31:53;3.40;;;1.60;;
56577;SDS011;42461;53.192;5.646;2022-07-06T01:34:20;3.20;;;1.30;;
56577;SDS011;42461;53.192;5.646;2022-07-06T01:36:46;3.80;;;1.40;;
56577;SDS011;42461;53.192;5.646;2022-07-06T01:39:12;3.28;;;1.30;;
56577;SDS011;42461;53.192;5.646;2022-07-06T01:41:38;3.75;;;1.50;;
56577;SDS011;42461;53.192;5.646;2022-07-06T01:44:04;3.55;;;1.30;;
56577;SDS011;42461;53.192;5.646;2022-07-06T01:46:31;6.32;;;2.00;;
56577;SDS011;42461;53.192;5.646;2022-07-06T01:48:57;6.50;;;1.95;;
56577;SDS011;42461;53.192;5.646;2022-07-06T01:51:23;6.13;;;1.40;;
56577;SDS011;42461;53.192;5.646;2022-07-06T01:53:49;4.82;;;1.80;;
56577;SDS011;42461;53.192;5.646;2022-07-06T01:56:16;2.00;;;1.30;;
56577;SDS011;42461;53.192;5.646;2022-07-06T01:58:44;4.53;;;1.60;;
56577;SDS011;42461;53.192;5.646;2022-07-06T02:01:10;4.20;;;1.40;;
56577;SDS011;42461;53.192;5.646;2022-07-06T02:03:37;6.93;;;1.38;;
56577;SDS011;42461;53.192;5.646;2022-07-06T02:06:04;4.70;;;1.30;;
56577;SDS011;42461;53.192;5.646;2022-07-06T02:08:30;5.32;;;1.40;;
56577;SDS011;42461;53.192;5.646;2022-07-06T02:10:57;3.97;;;1.30;;
56577;SDS011;42461;53.192;5.646;2022-07-06T02:13:23;2.30;;;1.10;;
56577;SDS011;42461;53.192;5.646;2022-07-06T02:15:49;4.78;;;1.27;;
56577;SDS011;42461;53.192;5.646;2022-07-06T02:18:15;2.80;;;1.10;;
56577;SDS011;42461;53.192;5.646;2022-07-06T02:20:41;5.97;;;1.20;;
56577;SDS011;42461;53.192;5.646;2022-07-06T02:23:07;2.85;;;1.20;;
56577;SDS011;42461;53.192;5.646;2022-07-06T02:25:33;3.53;;;1.23;;
56577;SDS011;42461;53.192;5.646;2022-07-06T02:27:59;2.20;;;1.00;;
56577;SDS011;42461;53.192;5.646;2022-07-06T02:30:25;5.35;;;1.50;;
56577;SDS011;42461;53.192;5.646;2022-07-06T02:32:54;4.22;;;1.30;;
56577;SDS011;42461;53.192;5.646;2022-07-06T02:35:20;3.90;;;1.80;;
56577;SDS011;42461;53.192;5.646;2022-07-06T02:37:46;3.90;;;1.30;;
56577;SDS011;42461;53.192;5.646;2022-07-06T02:40:12;5.75;;;1.40;;
56577;SDS011;42461;53.192;5.646;2022-07-06T02:42:38;4.28;;;1.40;;
56577;SDS011;42461;53.192;5.646;2022-07-06T02:45:04;3.58;;;1.27;;
56577;SDS011;42461;53.192;5.646;2022-07-06T02:47:30;4.55;;;1.40;;
56577;SDS011;42461;53.192;5.646;2022-07-06T02:49:56;5.15;;;1.13;;
56577;SDS011;42461;53.192;5.646;2022-07-06T02:52:22;2.83;;;1.35;;
56577;SDS011;42461;53.192;5.646;2022-07-06T02:54:48;3.63;;;1.50;;
56577;SDS011;42461;53.192;5.646;2022-07-06T02:57:18;3.75;;;1.35;;
56577;SDS011;42461;53.192;5.646;2022-07-06T02:59:44;5.00;;;1.42;;
56577;SDS011;42461;53.192;5.646;2022-07-06T03:02:11;3.58;;;1.33;;
56577;SDS011;42461;53.192;5.646;2022-07-06T03:04:37;4.53;;;1.50;;
56577;SDS011;42461;53.192;5.646;2022-07-06T03:07:08;2.33;;;1.20;;
56577;SDS011;42461;53.192;5.646;2022-07-06T03:09:34;2.78;;;1.38;;
56577;SDS011;42461;53.192;5.646;2022-07-06T03:12:00;3.42;;;1.35;;
56577;SDS011;42461;53.192;5.646;2022-07-06T03:14:26;3.58;;;1.48;;
56577;SDS011;42461;53.192;5.646;2022-07-06T03:16:53;4.68;;;1.38;;
56577;SDS011;42461;53.192;5.646;2022-07-06T03:19:19;4.97;;;1.30;;
56577;SDS011;42461;53.192;5.646;2022-07-06T03:21:45;3.67;;;1.30;;
56577;SDS011;42461;53.192;5.646;2022-07-06T03:24:11;2.58;;;1.10;;
56577;SDS011;42461;53.192;5.646;2022-07-06T03:26:37;3.13;;;1.20;;
56577;SDS011;42461;53.192;5.646;2022-07-06T03:29:03;3.05;;;1.48;;
56577;SDS011;42461;53.192;5.646;2022-07-06T03:31:29;3.65;;;1.40;;
56577;SDS011;42461;53.192;5.646;2022-07-06T03:33:55;3.40;;;1.40;;
56577;SDS011;42461;53.192;5.646;2022-07-06T03:36:21;1.90;;;1.42;;
56577;SDS011;42461;53.192;5.646;2022-07-06T03:38:47;3.95;;;1.55;;
56577;SDS011;42461;53.192;5.646;2022-07-06T03:41:13;3.90;;;1.25;;
56577;SDS011;42461;53.192;5.646;2022-07-06T03:43:39;3.50;;;1.25;;
56577;SDS011;42461;53.192;5.646;2022-07-06T03:46:05;4.18;;;1.40;;
56577;SDS011;42461;53.192;5.646;2022-07-06T03:48:31;2.75;;;1.40;;
56577;SDS011;42461;53.192;5.646;2022-07-06T03:50:57;2.53;;;1.27;;
56577;SDS011;42461;53.192;5.646;2022-07-06T03:53:23;3.95;;;1.30;;
56577;SDS011;42461;53.192;5.646;2022-07-06T03:55:49;3.38;;;1.50;;
56577;SDS011;42461;53.192;5.646;2022-07-06T03:58:34;1.73;;;1.13;;
56577;SDS011;42461;53.192;5.646;2022-07-06T04:01:00;4.25;;;1.33;;
56577;SDS011;42461;53.192;5.646;2022-07-06T04:03:26;1.75;;;1.20;;
56577;SDS011;42461;53.192;5.646;2022-07-06T04:05:52;5.15;;;1.13;;
56577;SDS011;42461;53.192;5.646;2022-07-06T04:08:18;2.95;;;1.02;;
56577;SDS011;42461;53.192;5.646;2022-07-06T04:10:45;2.90;;;1.13;;
56577;SDS011;42461;53.192;5.646;2022-07-06T04:13:11;4.00;;;1.30;;
56577;SDS011;42461;53.192;5.646;2022-07-06T04:15:37;4.70;;;1.20;;
56577;SDS011;42461;53.192;5.646;2022-07-06T04:18:04;4.10;;;1.30;;
56577;SDS011;42461;53.192;5.646;2022-07-06T04:20:30;2.10;;;1.20;;
56577;SDS011;42461;53.192;5.646;2022-07-06T04:22:56;3.38;;;1.67;;
56577;SDS011;42461;53.192;5.646;2022-07-06T04:25:22;5.30;;;1.50;;
56577;SDS011;42461;53.192;5.646;2022-07-06T04:27:48;4.57;;;1.45;;
56577;SDS011;42461;53.192;5.646;2022-07-06T04:30:14;3.22;;;1.20;;
56577;SDS011;42461;53.192;5.646;2022-07-06T04:32:40;2.72;;;1.13;;
56577;SDS011;42461;53.192;5.646;2022-07-06T04:35:06;2.28;;;1.20;;
56577;SDS011;42461;53.192;5.646;2022-07-06T04:37:32;4.32;;;1.38;;
56577;SDS011;42461;53.192;5.646;2022-07-06T04:39:58;3.08;;;1.20;;
56577;SDS011;42461;53.192;5.646;2022-07-06T04:42:24;2.80;;;1.10;;
56577;SDS011;42461;53.192;5.646;2022-07-06T04:44:50;3.50;;;1.30;;
56577;SDS011;42461;53.192;5.646;2022-07-06T04:47:17;2.58;;;1.10;;
56577;SDS011;42461;53.192;5.646;2022-07-06T04:49:43;3.75;;;1.48;;
56577;SDS011;42461;53.192;5.646;2022-07-06T04:52:09;2.55;;;1.40;;
56577;SDS011;42461;53.192;5.646;2022-07-06T04:54:35;3.20;;;1.20;;
56577;SDS011;42461;53.192;5.646;2022-07-06T04:57:01;2.83;;;1.33;;
56577;SDS011;42461;53.192;5.646;2022-07-06T04:59:27;3.33;;;1.15;;
56577;SDS011;42461;53.192;5.646;2022-07-06T05:01:53;1.65;;;1.02;;
56577;SDS011;42461;53.192;5.646;2022-07-06T05:04:19;3.80;;;1.25;;
56577;SDS011;42461;53.192;5.646;2022-07-06T05:06:45;4.30;;;1.50;;
56577;SDS011;42461;53.192;5.646;2022-07-06T05:09:12;4.45;;;1.33;;
56577;SDS011;42461;53.192;5.646;2022-07-06T05:11:38;4.22;;;1.70;;
56577;SDS011;42461;53.192;5.646;2022-07-06T05:14:05;1.77;;;1.10;;
56577;SDS011;42461;53.192;5.646;2022-07-06T05:16:31;4.25;;;1.27;;
56577;SDS011;42461;53.192;5.646;2022-07-06T05:18:57;3.70;;;1.30;;
56577;SDS011;42461;53.192;5.646;2022-07-06T05:21:23;3.97;;;1.17;;
56577;SDS011;42461;53.192;5.646;2022-07-06T05:23:49;2.25;;;1.20;;
56577;SDS011;42461;53.192;5.646;2022-07-06T05:26:16;2.25;;;1.15;;
56577;SDS011;42461;53.192;5.646;2022-07-06T05:28:42;3.13;;;1.35;;
56577;SDS011;42461;53.192;5.646;2022-07-06T05:31:08;3.33;;;1.20;;
56577;SDS011;42461;53.192;5.646;2022-07-06T05:33:34;2.30;;;1.10;;
56577;SDS011;42461;53.192;5.646;2022-07-06T05:36:00;3.17;;;1.25;;
56577;SDS011;42461;53.192;5.646;2022-07-06T05:38:26;3.70;;;1.17;;
56577;SDS011;42461;53.192;5.646;2022-07-06T05:40:52;2.08;;;1.42;;
56577;SDS011;42461;53.192;5.646;2022-07-06T05:43:18;4.32;;;1.80;;
56577;SDS011;42461;53.192;5.646;2022-07-06T05:45:44;2.92;;;1.38;;
56577;SDS011;42461;53.192;5.646;2022-07-06T05:48:10;3.25;;;1.20;;
56577;SDS011;42461;53.192;5.646;2022-07-06T05:50:54;3.63;;;1.27;;
56577;SDS011;42461;53.192;5.646;2022-07-06T05:53:21;2.92;;;1.20;;
56577;SDS011;42461;53.192;5.646;2022-07-06T05:55:47;3.70;;;1.30;;
56577;SDS011;42461;53.192;5.646;2022-07-06T05:58:13;4.32;;;1.20;;
56577;SDS011;42461;53.192;5.646;2022-07-06T06:00:39;2.90;;;1.20;;
56577;SDS011;42461;53.192;5.646;2022-07-06T06:03:05;2.65;;;0.95;;
56577;SDS011;42461;53.192;5.646;2022-07-06T06:05:32;3.95;;;1.02;;
56577;SDS011;42461;53.192;5.646;2022-07-06T06:07:58;4.40;;;1.10;;
56577;SDS011;42461;53.192;5.646;2022-07-06T06:10:24;3.45;;;1.27;;
56577;SDS011;42461;53.192;5.646;2022-07-06T06:12:50;3.80;;;1.30;;
56577;SDS011;42461;53.192;5.646;2022-07-06T06:15:16;3.72;;;1.10;;
56577;SDS011;42461;53.192;5.646;2022-07-06T06:17:43;3.00;;;1.30;;
56577;SDS011;42461;53.192;5.646;2022-07-06T06:20:09;1.83;;;1.00;;
56577;SDS011;42461;53.192;5.646;2022-07-06T06:22:48;2.78;;;1.00;;
56577;SDS011;42461;53.192;5.646;2022-07-06T06:25:15;3.00;;;1.10;;
56577;SDS011;42461;53.192;5.646;2022-07-06T06:27:41;1.98;;;0.93;;
56577;SDS011;42461;53.192;5.646;2022-07-06T06:30:08;4.18;;;1.40;;
56577;SDS011;42461;53.192;5.646;2022-07-06T06:32:34;3.60;;;1.20;;
56577;SDS011;42461;53.192;5.646;2022-07-06T06:35:00;3.22;;;1.05;;
56577;SDS011;42461;53.192;5.646;2022-07-06T06:37:26;2.58;;;1.23;;
56577;SDS011;42461;53.192;5.646;2022-07-06T06:39:52;2.28;;;1.10;;
56577;SDS011;42461;53.192;5.646;2022-07-06T06:42:18;4.22;;;1.52;;
56577;SDS011;42461;53.192;5.646;2022-07-06T06:44:44;2.72;;;1.30;;
56577;SDS011;42461;53.192;5.646;2022-07-06T06:47:10;2.97;;;1.30;;
56577;SDS011;42461;53.192;5.646;2022-07-06T06:49:36;3.55;;;1.00;;
56577;SDS011;42461;53.192;5.646;2022-07-06T06:52:02;5.78;;;1.40;;
56577;SDS011;42461;53.192;5.646;2022-07-06T06:54:28;2.70;;;1.27;;
56577;SDS011;42461;53.192;5.646;2022-07-06T06:56:54;4.05;;;1.40;;
56577;SDS011;42461;53.192;5.646;2022-07-06T06:59:20;3.72;;;1.50;;
56577;SDS011;42461;53.192;5.646;2022-07-06T07:01:46;2.08;;;1.15;;
56577;SDS011;42461;53.192;5.646;2022-07-06T07:04:12;2.30;;;0.93;;
56577;SDS011;42461;53.192;5.646;2022-07-06T07:06:39;2.45;;;0.98;;
56577;SDS011;42461;53.192;5.646;2022-07-06T07:09:05;2.38;;;1.10;;
56577;SDS011;42461;53.192;5.646;2022-07-06T07:11:31;3.22;;;1.38;;
56577;SDS011;42461;53.192;5.646;2022-07-06T07:13:57;2.25;;;1.10;;
56577;SDS011;42461;53.192;5.646;2022-07-06T07:16:25;2.95;;;1.30;;
56577;SDS011;42461;53.192;5.646;2022-07-06T07:18:51;3.22;;;1.10;;
56577;SDS011;42461;53.192;5.646;2022-07-06T07:21:17;2.97;;;1.17;;
56577;SDS011;42461;53.192;5.646;2022-07-06T07:23:43;4.10;;;1.20;;
56577;SDS011;42461;53.192;5.646;2022-07-06T07:26:09;6.45;;;1.23;;
56577;SDS011;42461;53.192;5.646;2022-07-06T07:28:35;3.10;;;1.33;;
56577;SDS011;42461;53.192;5.646;2022-07-06T07:31:02;2.65;;;1.10;;
56577;SDS011;42461;53.192;5.646;2022-07-06T07:33:28;3.58;;;1.27;;
56577;SDS011;42461;53.192;5.646;2022-07-06T07:35:53;2.28;;;1.10;;
56577;SDS011;42461;53.192;5.646;2022-07-06T07:38:19;4.20;;;1.40;;
56577;SDS011;42461;53.192;5.646;2022-07-06T07:40:45;7.72;;;1.45;;
56577;SDS011;42461;53.192;5.646;2022-07-06T07:43:11;3.05;;;1.38;;
56577;SDS011;42461;53.192;5.646;2022-07-06T07:45:37;4.28;;;1.30;;
56577;SDS011;42461;53.192;5.646;2022-07-06T07:48:04;2.80;;;1.25;;
56577;SDS011;42461;53.192;5.646;2022-07-06T07:50:30;3.00;;;1.30;;
56577;SDS011;42461;53.192;5.646;2022-07-06T07:52:56;2.40;;;1.00;;
56577;SDS011;42461;53.192;5.646;2022-07-06T07:55:22;2.67;;;0.90;;
56577;SDS011;42461;53.192;5.646;2022-07-06T07:57:48;3.05;;;1.30;;
56577;SDS011;42461;53.192;5.646;2022-07-06T08:00:14;3.42;;;1.20;;
56577;SDS011;42461;53.192;5.646;2022-07-06T08:02:43;1.58;;;1.10;;
56577;SDS011;42461;53.192;5.646;2022-07-06T08:05:09;5.50;;;1.23;;
56577;SDS011;42461;53.192;5.646;2022-07-06T08:07:38;2.80;;;1.10;;
56577;SDS011;42461;53.192;5.646;2022-07-06T08:10:05;3.08;;;1.20;;
56577;SDS011;42461;53.192;5.646;2022-07-06T08:12:31;3.58;;;1.15;;
56577;SDS011;42461;53.192;5.646;2022-07-06T08:14:57;2.92;;;1.48;;
56577;SDS011;42461;53.192;5.646;2022-07-06T08:17:23;4.13;;;1.40;;
56577;SDS011;42461;53.192;5.646;2022-07-06T08:19:50;3.70;;;1.13;;
56577;SDS011;42461;53.192;5.646;2022-07-06T08:22:15;3.15;;;1.20;;
56577;SDS011;42461;53.192;5.646;2022-07-06T08:24:41;2.83;;;1.10;;
56577;SDS011;42461;53.192;5.646;2022-07-06T08:27:07;3.28;;;1.17;;
56577;SDS011;42461;53.192;5.646;2022-07-06T08:29:34;2.63;;;1.05;;
56577;SDS011;42461;53.192;5.646;2022-07-06T08:32:00;3.20;;;1.35;;
56577;SDS011;42461;53.192;5.646;2022-07-06T08:34:25;3.95;;;1.27;;
56577;SDS011;42461;53.192;5.646;2022-07-06T08:36:52;3.88;;;1.10;;
56577;SDS011;42461;53.192;5.646;2022-07-06T08:39:18;4.20;;;1.17;;
56577;SDS011;42461;53.192;5.646;2022-07-06T08:41:44;2.40;;;1.20;;
56577;SDS011;42461;53.192;5.646;2022-07-06T08:44:13;2.47;;;1.10;;
56577;SDS011;42461;53.192;5.646;2022-07-06T08:46:39;1.48;;;1.10;;
56577;SDS011;42461;53.192;5.646;2022-07-06T08:49:08;3.17;;;1.10;;
56577;SDS011;42461;53.192;5.646;2022-07-06T08:51:37;4.63;;;1.13;;
56577;SDS011;42461;53.192;5.646;2022-07-06T08:54:04;5.10;;;1.17;;
56577;SDS011;42461;53.192;5.646;2022-07-06T08:56:30;2.30;;;1.10;;
56577;SDS011;42461;53.192;5.646;2022-07-06T08:58:56;1.73;;;0.90;;
56577;SDS011;42461;53.192;5.646;2022-07-06T09:01:22;1.63;;;1.00;;
56577;SDS011;42461;53.192;5.646;2022-07-06T09:03:48;2.13;;;1.10;;
56577;SDS011;42461;53.192;5.646;2022-07-06T09:06:16;3.38;;;1.25;;
56577;SDS011;42461;53.192;5.646;2022-07-06T09:08:42;3.53;;;0.90;;
56577;SDS011;42461;53.192;5.646;2022-07-06T09:11:09;3.40;;;1.10;;
56577;SDS011;42461;53.192;5.646;2022-07-06T09:13:35;1.33;;;0.90;;
56577;SDS011;42461;53.192;5.646;2022-07-06T09:16:13;4.32;;;1.30;;
56577;SDS011;42461;53.192;5.646;2022-07-06T09:18:41;2.53;;;1.08;;
56577;SDS011;42461;53.192;5.646;2022-07-06T09:21:09;2.67;;;1.00;;
56577;SDS011;42461;53.192;5.646;2022-07-06T09:23:35;7.15;;;1.40;;
56577;SDS011;42461;53.192;5.646;2022-07-06T09:26:10;1.75;;;1.20;;
56577;SDS011;42461;53.192;5.646;2022-07-06T09:28:43;3.25;;;1.20;;
56577;SDS011;42461;53.192;5.646;2022-07-06T09:31:09;3.80;;;1.17;;
56577;SDS011;42461;53.192;5.646;2022-07-06T09:33:35;1.08;;;0.93;;
56577;SDS011;42461;53.192;5.646;2022-07-06T09:36:01;2.92;;;0.90;;
56577;SDS011;42461;53.192;5.646;2022-07-06T09:38:27;3.75;;;1.10;;
56577;SDS011;42461;53.192;5.646;2022-07-06T09:40:53;2.97;;;1.38;;
56577;SDS011;42461;53.192;5.646;2022-07-06T09:43:23;1.42;;;0.93;;
56577;SDS011;42461;53.192;5.646;2022-07-06T09:45:50;1.95;;;1.00;;
56577;SDS011;42461;53.192;5.646;2022-07-06T09:48:17;4.30;;;1.27;;
56577;SDS011;42461;53.192;5.646;2022-07-06T09:50:46;1.40;;;0.90;;
56577;SDS011;42461;53.192;5.646;2022-07-06T09:53:13;2.80;;;1.13;;
56577;SDS011;42461;53.192;5.646;2022-07-06T09:55:43;3.97;;;1.00;;
56577;SDS011;42461;53.192;5.646;2022-07-06T09:58:09;1.75;;;0.90;;
56577;SDS011;42461;53.192;5.646;2022-07-06T10:00:36;1.20;;;0.90;;
56577;SDS011;42461;53.192;5.646;2022-07-06T10:03:02;2.65;;;1.08;;
56577;SDS011;42461;53.192;5.646;2022-07-06T10:05:28;2.58;;;1.10;;
56577;SDS011;42461;53.192;5.646;2022-07-06T10:07:59;1.83;;;0.90;;
56577;SDS011;42461;53.192;5.646;2022-07-06T10:10:26;2.80;;;1.27;;
56577;SDS011;42461;53.192;5.646;2022-07-06T10:12:54;3.03;;;0.90;;
56577;SDS011;42461;53.192;5.646;2022-07-06T10:15:21;2.78;;;1.10;;
56577;SDS011;42461;53.192;5.646;2022-07-06T10:17:47;1.98;;;1.00;;
56577;SDS011;42461;53.192;5.646;2022-07-06T10:20:14;1.50;;;0.90;;
56577;SDS011;42461;53.192;5.646;2022-07-06T10:22:40;2.60;;;1.00;;
56577;SDS011;42461;53.192;5.646;2022-07-06T10:25:06;1.17;;;0.80;;
56577;SDS011;42461;53.192;5.646;2022-07-06T10:27:32;2.72;;;1.10;;
56577;SDS011;42461;53.192;5.646;2022-07-06T10:29:58;3.83;;;2.20;;
56577;SDS011;42461;53.192;5.646;2022-07-06T10:32:24;2.65;;;1.20;;
56577;SDS011;42461;53.192;5.646;2022-07-06T10:34:51;2.28;;;1.10;;
56577;SDS011;42461;53.192;5.646;2022-07-06T10:37:27;5.10;;;1.02;;
56577;SDS011;42461;53.192;5.646;2022-07-06T10:39:54;2.70;;;1.00;;
56577;SDS011;42461;53.192;5.646;2022-07-06T10:42:39;2.13;;;1.00;;
56577;SDS011;42461;53.192;5.646;2022-07-06T10:45:06;2.47;;;1.00;;
56577;SDS011;42461;53.192;5.646;2022-07-06T10:47:32;3.00;;;1.25;;
56577;SDS011;42461;53.192;5.646;2022-07-06T10:50:02;0.95;;;0.77;;
56577;SDS011;42461;53.192;5.646;2022-07-06T10:52:47;1.98;;;0.80;;
56577;SDS011;42461;53.192;5.646;2022-07-06T10:55:30;3.42;;;0.98;;
56577;SDS011;42461;53.192;5.646;2022-07-06T10:57:57;1.67;;;0.98;;
56577;SDS011;42461;53.192;5.646;2022-07-06T11:00:23;1.25;;;0.90;;
56577;SDS011;42461;53.192;5.646;2022-07-06T11:02:49;2.60;;;1.05;;
56577;SDS011;42461;53.192;5.646;2022-07-06T11:10:26;1.65;;;1.10;;
56577;SDS011;42461;53.192;5.646;2022-07-06T11:12:59;1.45;;;0.82;;
56577;SDS011;42461;53.192;5.646;2022-07-06T11:18:13;3.30;;;1.00;;
56577;SDS011;42461;53.192;5.646;2022-07-06T11:21:07;2.60;;;1.03;;
56577;SDS011;42461;53.192;5.646;2022-07-06T11:23:30;3.22;;;1.30;;
56577;SDS011;42461;53.192;5.646;2022-07-06T11:25:56;3.17;;;0.95;;
56577;SDS011;42461;53.192;5.646;2022-07-06T11:28:23;2.25;;;1.00;;
56577;SDS011;42461;53.192;5.646;2022-07-06T11:30:51;3.75;;;1.00;;
56577;SDS011;42461;53.192;5.646;2022-07-06T11:33:36;1.30;;;1.00;;
56577;SDS011;42461;53.192;5.646;2022-07-06T11:36:12;2.80;;;1.17;;
56577;SDS011;42461;53.192;5.646;2022-07-06T11:38:38;1.55;;;1.10;;
56577;SDS011;42461;53.192;5.646;2022-07-06T11:41:04;1.52;;;1.13;;
56577;SDS011;42461;53.192;5.646;2022-07-06T11:43:30;2.03;;;1.15;;
56577;SDS011;42461;53.192;5.646;2022-07-06T11:45:56;1.60;;;1.00;;
56577;SDS011;42461;53.192;5.646;2022-07-06T11:48:22;2.15;;;1.00;;
56577;SDS011;42461;53.192;5.646;2022-07-06T11:51:00;1.85;;;0.95;;
56577;SDS011;42461;53.192;5.646;2022-07-06T11:53:27;3.42;;;1.20;;
56577;SDS011;42461;53.192;5.646;2022-07-06T11:55:53;1.70;;;1.27;;
56577;SDS011;42461;53.192;5.646;2022-07-06T11:58:22;2.47;;;0.90;;
56577;SDS011;42461;53.192;5.646;2022-07-06T12:03:49;1.92;;;1.20;;
56577;SDS011;42461;53.192;5.646;2022-07-06T12:06:17;2.67;;;1.10;;
56577;SDS011;42461;53.192;5.646;2022-07-06T12:08:44;3.50;;;1.30;;
56577;SDS011;42461;53.192;5.646;2022-07-06T12:11:14;1.85;;;1.33;;
56577;SDS011;42461;53.192;5.646;2022-07-06T12:13:42;3.92;;;1.63;;
56577;SDS011;42461;53.192;5.646;2022-07-06T12:16:09;2.35;;;1.60;;
56577;SDS011;42461;53.192;5.646;2022-07-06T12:18:35;3.90;;;1.50;;
56577;SDS011;42461;53.192;5.646;2022-07-06T12:21:01;1.80;;;0.95;;
56577;SDS011;42461;53.192;5.646;2022-07-06T12:23:37;2.67;;;1.40;;
56577;SDS011;42461;53.192;5.646;2022-07-06T12:26:03;2.72;;;1.30;;
56577;SDS011;42461;53.192;5.646;2022-07-06T12:28:29;1.73;;;1.10;;
56577;SDS011;42461;53.192;5.646;2022-07-06T12:30:55;3.28;;;1.20;;
56577;SDS011;42461;53.192;5.646;2022-07-06T12:33:21;3.92;;;1.33;;
56577;SDS011;42461;53.192;5.646;2022-07-06T12:35:47;1.70;;;1.17;;
56577;SDS011;42461;53.192;5.646;2022-07-06T12:38:13;5.00;;;1.45;;
56577;SDS011;42461;53.192;5.646;2022-07-06T12:40:46;2.80;;;1.30;;
56577;SDS011;42461;53.192;5.646;2022-07-06T12:43:12;2.15;;;1.20;;
56577;SDS011;42461;53.192;5.646;2022-07-06T12:45:38;2.45;;;1.20;;
56577;SDS011;42461;53.192;5.646;2022-07-06T12:48:04;1.92;;;1.40;;
56577;SDS011;42461;53.192;5.646;2022-07-06T12:53:00;4.03;;;1.42;;
56577;SDS011;42461;53.192;5.646;2022-07-06T12:55:26;1.77;;;1.10;;
56577;SDS011;42461;53.192;5.646;2022-07-06T12:57:53;2.20;;;1.25;;
56577;SDS011;42461;53.192;5.646;2022-07-06T13:00:19;3.15;;;1.40;;
56577;SDS011;42461;53.192;5.646;2022-07-06T13:02:47;2.28;;;1.55;;
56577;SDS011;42461;53.192;5.646;2022-07-06T13:05:14;2.22;;;1.40;;
56577;SDS011;42461;53.192;5.646;2022-07-06T13:07:44;2.70;;;1.30;;
56577;SDS011;42461;53.192;5.646;2022-07-06T13:10:11;2.35;;;1.30;;
56577;SDS011;42461;53.192;5.646;2022-07-06T13:12:38;3.58;;;1.30;;
56577;SDS011;42461;53.192;5.646;2022-07-06T13:15:06;3.13;;;1.33;;
56577;SDS011;42461;53.192;5.646;2022-07-06T13:17:33;3.08;;;1.30;;
56577;SDS011;42461;53.192;5.646;2022-07-06T13:19:59;3.55;;;1.40;;
56577;SDS011;42461;53.192;5.646;2022-07-06T13:22:25;3.22;;;1.30;;
56577;SDS011;42461;53.192;5.646;2022-07-06T13:24:51;2.17;;;1.33;;
56577;SDS011;42461;53.192;5.646;2022-07-06T13:27:17;4.40;;;1.40;;
56577;SDS011;42461;53.192;5.646;2022-07-06T13:29:43;3.58;;;1.40;;
56577;SDS011;42461;53.192;5.646;2022-07-06T13:32:09;3.40;;;1.48;;
56577;SDS011;42461;53.192;5.646;2022-07-06T13:34:35;5.60;;;1.90;;
56577;SDS011;42461;53.192;5.646;2022-07-06T13:37:02;3.22;;;1.60;;
56577;SDS011;42461;53.192;5.646;2022-07-06T13:39:28;2.83;;;1.50;;
56577;SDS011;42461;53.192;5.646;2022-07-06T13:41:54;2.85;;;1.70;;
56577;SDS011;42461;53.192;5.646;2022-07-06T13:44:20;4.57;;;1.63;;
56577;SDS011;42461;53.192;5.646;2022-07-06T13:46:46;3.33;;;1.60;;
56577;SDS011;42461;53.192;5.646;2022-07-06T13:49:12;2.88;;;1.60;;
56577;SDS011;42461;53.192;5.646;2022-07-06T13:51:38;4.82;;;1.60;;
56577;SDS011;42461;53.192;5.646;2022-07-06T13:54:05;2.67;;;1.45;;
56577;SDS011;42461;53.192;5.646;2022-07-06T13:56:31;3.70;;;1.70;;
56577;SDS011;42461;53.192;5.646;2022-07-06T13:58:57;5.57;;;2.20;;
56577;SDS011;42461;53.192;5.646;2022-07-06T14:01:23;3.72;;;2.03;;
56577;SDS011;42461;53.192;5.646;2022-07-06T14:03:49;6.15;;;2.47;;
56577;SDS011;42461;53.192;5.646;2022-07-06T14:06:15;3.83;;;1.90;;
56577;SDS011;42461;53.192;5.646;2022-07-06T14:08:41;5.70;;;2.20;;
56577;SDS011;42461;53.192;5.646;2022-07-06T14:11:08;4.95;;;2.35;;
56577;SDS011;42461;53.192;5.646;2022-07-06T14:13:34;3.35;;;1.92;;
56577;SDS011;42461;53.192;5.646;2022-07-06T14:16:00;5.72;;;2.10;;
56577;SDS011;42461;53.192;5.646;2022-07-06T14:18:27;3.58;;;1.63;;
56577;SDS011;42461;53.192;5.646;2022-07-06T14:20:53;6.47;;;2.22;;
56577;SDS011;42461;53.192;5.646;2022-07-06T14:23:20;9.18;;;3.08;;
56577;SDS011;42461;53.192;5.646;2022-07-06T14:25:46;5.28;;;2.28;;
56577;SDS011;42461;53.192;5.646;2022-07-06T14:28:12;4.82;;;2.00;;
56577;SDS011;42461;53.192;5.646;2022-07-06T14:30:39;3.78;;;1.90;;
56577;SDS011;42461;53.192;5.646;2022-07-06T14:33:06;6.25;;;2.13;;
56577;SDS011;42461;53.192;5.646;2022-07-06T14:35:36;4.90;;;2.10;;
56577;SDS011;42461;53.192;5.646;2022-07-06T14:38:03;2.75;;;1.83;;
56577;SDS011;42461;53.192;5.646;2022-07-06T14:40:29;4.75;;;2.20;;
56577;SDS011;42461;53.192;5.646;2022-07-06T14:42:56;5.18;;;2.53;;
56577;SDS011;42461;53.192;5.646;2022-07-06T14:45:22;3.90;;;2.20;;
56577;SDS011;42461;53.192;5.646;2022-07-06T14:47:48;6.70;;;2.75;;
56577;SDS011;42461;53.192;5.646;2022-07-06T14:50:14;7.38;;;2.65;;
56577;SDS011;42461;53.192;5.646;2022-07-06T14:52:40;5.20;;;2.10;;
56577;SDS011;42461;53.192;5.646;2022-07-06T14:55:06;5.88;;;2.33;;
56577;SDS011;42461;53.192;5.646;2022-07-06T14:57:33;6.70;;;2.30;;
56577;SDS011;42461;53.192;5.646;2022-07-06T14:59:59;5.72;;;2.22;;